Double Diamond — VJN3534 — position and weather

sailwx.info

Track history (hours):
 
Tides and Currents Weather Stations Pressure Air Temp Water Temp Dewpoint Dewpoint Depression Visibility Wind Speed Wind Dir Waves Ship Positions

Double Diamond

Last reported at 2018-Jan-05 23:49 UTC. Time now 2018-Feb-18 03:33 UTC.
Position S 32°56' E 151°60'.
Warning: this ship's position is 43 days out of date.

Length 13 m.

Type: Pleasure craft. MMSI: 503482700.

Date/timePositionNaut miles runAvg speedWind from/ knotsBaromVisibWave heightAir tempDewpointWater temp
2018-Jan-05 23:49S 32°56' E 151°60'3 5.8
2018-Jan-05 23:17S 32°54' E 152°02'2 5.8
2018-Jan-05 23:00S 32°53' E 152°04'3 6.1
2018-Jan-05 22:30S 32°51' E 152°06'3 6.4
2018-Jan-05 22:00S 32°48' E 152°09'3 6.1
2018-Jan-05 21:30S 32°46' E 152°12'3 5.5
2018-Jan-05 21:00S 32°44' E 152°12'2 3.2
2018-Jan-05 20:30S 32°42' E 152°11'2 3.0
2018-Jan-05 20:00S 32°41' E 152°11'0 0.0
2018-Jan-05 10:10S 32°41' E 152°11'0 0.0
2018-Jan-05 09:58S 32°41' E 152°11'0 0.0
2018-Jan-05 09:28S 32°41' E 152°11'0 0.0
2018-Jan-05 08:58S 32°41' E 152°11'0 0.0
2018-Jan-05 08:28S 32°41' E 152°11'0 0.0
2018-Jan-05 07:58S 32°41' E 152°11'0 0.0
2018-Jan-05 07:28S 32°41' E 152°11'0 0.0
2018-Jan-05 06:58S 32°41' E 152°11'0 0.0
2018-Jan-05 06:28S 32°41' E 152°11'0 0.0
2018-Jan-05 05:58S 32°41' E 152°11'0 0.0
2018-Jan-05 05:28S 32°41' E 152°11'0 0.0
2018-Jan-05 04:58S 32°41' E 152°11'0 0.0
2018-Jan-05 04:28S 32°41' E 152°11'0 0.0
2018-Jan-05 03:58S 32°41' E 152°11'0 0.0
2018-Jan-05 03:28S 32°41' E 152°11'0 0.0
2018-Jan-05 02:58S 32°41' E 152°11'0 0.0
2018-Jan-05 02:28S 32°41' E 152°11'0 0.0
2018-Jan-05 01:58S 32°41' E 152°11'1 1.5
2018-Jan-05 01:30S 32°41' E 152°11'3 5.4
2018-Jan-05 01:00S 32°44' E 152°12'1 1.0
2018-Jan-05 00:16S 32°45' E 152°12'0 1.0
2018-Jan-04 23:58S 32°45' E 152°12'1 1.3
2018-Jan-04 23:28S 32°44' E 152°12'0 0.4
2018-Jan-04 22:58S 32°44' E 152°12'0 0.7
2018-Jan-04 22:30S 32°44' E 152°12'0 0.4
2018-Jan-04 21:59S 32°44' E 152°12'1 1.3
2018-Jan-04 21:30S 32°44' E 152°12'2 4.2
2018-Jan-04 21:00S 32°42' E 152°11'1 0.1
2018-Jan-04 09:11S 32°41' E 152°11'0 0.0
2018-Jan-04 08:59S 32°41' E 152°11'0 0.0
2018-Jan-04 08:29S 32°41' E 152°11'0 0.0
2018-Jan-04 07:59S 32°41' E 152°11'0 0.0
2018-Jan-04 07:29S 32°41' E 152°11'0 0.0
2018-Jan-04 06:59S 32°41' E 152°11'0 0.0
2018-Jan-04 06:29S 32°41' E 152°11'0 0.0
2018-Jan-04 05:59S 32°41' E 152°11'0 0.0
2018-Jan-04 05:29S 32°41' E 152°11'0 0.0
2018-Jan-04 04:59S 32°41' E 152°11'2 3.5
2018-Jan-04 04:30S 32°42' E 152°10'1 2.1
2018-Jan-04 04:00S 32°43' E 152°09'0 0.0
2018-Jan-04 03:30S 32°43' E 152°09'0 0.0
2018-Jan-04 03:00S 32°43' E 152°09'0 0.0
2018-Jan-04 02:30S 32°43' E 152°09'0 0.0
2018-Jan-04 02:00S 32°43' E 152°09'0 0.0
2018-Jan-04 01:30S 32°43' E 152°09'0 0.0
2018-Jan-04 01:00S 32°43' E 152°09'0 0.0
2018-Jan-04 00:30S 32°43' E 152°09'1 2.0
2018-Jan-04 00:00S 32°42' E 152°09'1 2.6
2018-Jan-03 23:30S 32°41' E 152°10'0 0.9
2018-Jan-03 22:58S 32°41' E 152°11'2 3.7
2018-Jan-03 22:30S 32°42' E 152°10'2 0.1
2018-Jan-03 09:35S 32°43' E 152°08'0 0.0
2018-Jan-03 09:29S 32°43' E 152°08'0 0.0
2018-Jan-03 08:59S 32°43' E 152°08'0 0.0
2018-Jan-03 08:29S 32°43' E 152°08'0 0.0
2018-Jan-03 07:59S 32°43' E 152°08'0 0.0
2018-Jan-03 07:29S 32°43' E 152°08'0 0.0
2018-Jan-03 06:59S 32°43' E 152°08'0 0.1
2018-Jan-03 06:29S 32°43' E 152°08'0 0.0
2018-Jan-03 05:59S 32°43' E 152°08'0 0.0
2018-Jan-03 05:29S 32°43' E 152°08'0 0.0
2018-Jan-03 04:59S 32°43' E 152°08'0 0.0
2018-Jan-03 04:29S 32°43' E 152°08'0 0.0
2018-Jan-03 03:59S 32°43' E 152°08'0 0.0
2018-Jan-03 03:29S 32°43' E 152°08'0 0.0
2018-Jan-03 02:59S 32°43' E 152°08'0 0.0
2018-Jan-03 02:29S 32°43' E 152°08'0 0.0
2018-Jan-03 01:59S 32°43' E 152°08'0 0.0
2018-Jan-03 01:29S 32°43' E 152°08'0 0.0
2018-Jan-03 00:59S 32°43' E 152°08'0 0.0
2018-Jan-03 00:29S 32°43' E 152°08'0 0.0
2018-Jan-02 23:59S 32°43' E 152°08'0 0.0
2018-Jan-02 23:29S 32°43' E 152°08'0 0.0
2018-Jan-02 22:59S 32°43' E 152°08'0 0.0
2018-Jan-02 22:29S 32°43' E 152°08'1 1.6
2018-Jan-02 21:59S 32°43' E 152°09'2 4.8
2018-Jan-02 21:30S 32°41' E 152°11'0 0.0
2018-Jan-02 09:24S 32°41' E 152°11'0 0.0
2018-Jan-02 08:30S 32°41' E 152°11'0 0.0
2018-Jan-02 08:00S 32°41' E 152°11'0 0.0
2018-Jan-02 07:30S 32°41' E 152°11'1 1.7
2018-Jan-02 07:00S 32°42' E 152°10'3 5.2
2018-Jan-02 06:30S 32°42' E 152°13'3 6.3
2018-Jan-02 06:00S 32°40' E 152°15'3 5.2
2018-Jan-02 05:30S 32°39' E 152°18'2 1.7
2018-Jan-02 04:26S 32°37' E 152°19'0 0.3
2018-Jan-02 03:59S 32°37' E 152°19'0 0.0
2018-Jan-02 00:20S 32°37' E 152°19'2 4.6
2018-Jan-02 00:00S 32°39' E 152°18'3 6.1
2018-Jan-01 23:30S 32°40' E 152°15'3 5.9
2018-Jan-01 23:00S 32°42' E 152°12'2 4.2
2018-Jan-01 22:30S 32°41' E 152°11'0 0.0
2017-Dec-31 07:58S 32°41' E 152°11'0 0.0
2017-Dec-31 07:28S 32°41' E 152°11'0 0.0
2017-Dec-31 06:58S 32°41' E 152°11'0 0.0
2017-Dec-31 06:28S 32°41' E 152°11'0 0.0
2017-Dec-31 05:58S 32°41' E 152°11'0 0.0
2017-Dec-31 05:28S 32°41' E 152°11'0 1.0
2017-Dec-31 05:00S 32°41' E 152°10'3 6.4
2017-Dec-31 04:30S 32°44' E 152°12'2 3.6
2017-Dec-31 04:00S 32°46' E 152°11'2 3.5
2017-Dec-31 03:30S 32°46' E 152°09'3 5.4
2017-Dec-31 03:00S 32°48' E 152°07'3 5.8
2017-Dec-31 02:30S 32°50' E 152°04'3 5.9
2017-Dec-31 02:00S 32°51' E 152°01'  
Track history (hours):
 
Tides and Currents Weather Stations Pressure Air Temp Water Temp Dewpoint Dewpoint Depression Visibility Wind Speed Wind Dir Waves Ship Positions

Double Diamond

Last reported at 2018-Jan-05 23:49 UTC. Time now 2018-Feb-18 03:33 UTC.
Position S 32°56' E 151°60'.
Warning: this ship's position is 43 days out of date.

Length 13 m.

Type: Pleasure craft. MMSI: 503482700.

Date/timePositionNaut miles runAvg speedWind from/ knotsBaromVisibWave heightAir tempDewpointWater temp
2018-Jan-05 23:49S 32°56' E 151°60'3 5.8
2018-Jan-05 23:17S 32°54' E 152°02'2 5.8
2018-Jan-05 23:00S 32°53' E 152°04'3 6.1
2018-Jan-05 22:30S 32°51' E 152°06'3 6.4
2018-Jan-05 22:00S 32°48' E 152°09'3 6.1
2018-Jan-05 21:30S 32°46' E 152°12'3 5.5
2018-Jan-05 21:00S 32°44' E 152°12'2 3.2
2018-Jan-05 20:30S 32°42' E 152°11'2 3.0
2018-Jan-05 20:00S 32°41' E 152°11'0 0.0
2018-Jan-05 10:10S 32°41' E 152°11'0 0.0
2018-Jan-05 09:58S 32°41' E 152°11'0 0.0
2018-Jan-05 09:28S 32°41' E 152°11'0 0.0
2018-Jan-05 08:58S 32°41' E 152°11'0 0.0
2018-Jan-05 08:28S 32°41' E 152°11'0 0.0
2018-Jan-05 07:58S 32°41' E 152°11'0 0.0
2018-Jan-05 07:28S 32°41' E 152°11'0 0.0
2018-Jan-05 06:58S 32°41' E 152°11'0 0.0
2018-Jan-05 06:28S 32°41' E 152°11'0 0.0
2018-Jan-05 05:58S 32°41' E 152°11'0 0.0
2018-Jan-05 05:28S 32°41' E 152°11'0 0.0
2018-Jan-05 04:58S 32°41' E 152°11'0 0.0
2018-Jan-05 04:28S 32°41' E 152°11'0 0.0
2018-Jan-05 03:58S 32°41' E 152°11'0 0.0
2018-Jan-05 03:28S 32°41' E 152°11'0 0.0
2018-Jan-05 02:58S 32°41' E 152°11'0 0.0
2018-Jan-05 02:28S 32°41' E 152°11'0 0.0
2018-Jan-05 01:58S 32°41' E 152°11'1 1.5
2018-Jan-05 01:30S 32°41' E 152°11'3 5.4
2018-Jan-05 01:00S 32°44' E 152°12'1 1.0
2018-Jan-05 00:16S 32°45' E 152°12'0 1.0
2018-Jan-04 23:58S 32°45' E 152°12'1 1.3
2018-Jan-04 23:28S 32°44' E 152°12'0 0.4
2018-Jan-04 22:58S 32°44' E 152°12'0 0.7
2018-Jan-04 22:30S 32°44' E 152°12'0 0.4
2018-Jan-04 21:59S 32°44' E 152°12'1 1.3
2018-Jan-04 21:30S 32°44' E 152°12'2 4.2
2018-Jan-04 21:00S 32°42' E 152°11'1 0.1
2018-Jan-04 09:11S 32°41' E 152°11'0 0.0
2018-Jan-04 08:59S 32°41' E 152°11'0 0.0
2018-Jan-04 08:29S 32°41' E 152°11'0 0.0
2018-Jan-04 07:59S 32°41' E 152°11'0 0.0
2018-Jan-04 07:29S 32°41' E 152°11'0 0.0
2018-Jan-04 06:59S 32°41' E 152°11'0 0.0
2018-Jan-04 06:29S 32°41' E 152°11'0 0.0
2018-Jan-04 05:59S 32°41' E 152°11'0 0.0
2018-Jan-04 05:29S 32°41' E 152°11'0 0.0
2018-Jan-04 04:59S 32°41' E 152°11'2 3.5
2018-Jan-04 04:30S 32°42' E 152°10'1 2.1
2018-Jan-04 04:00S 32°43' E 152°09'0 0.0
2018-Jan-04 03:30S 32°43' E 152°09'0 0.0
2018-Jan-04 03:00S 32°43' E 152°09'0 0.0
2018-Jan-04 02:30S 32°43' E 152°09'0 0.0
2018-Jan-04 02:00S 32°43' E 152°09'0 0.0
2018-Jan-04 01:30S 32°43' E 152°09'0 0.0
2018-Jan-04 01:00S 32°43' E 152°09'0 0.0
2018-Jan-04 00:30S 32°43' E 152°09'1 2.0
2018-Jan-04 00:00S 32°42' E 152°09'1 2.6
2018-Jan-03 23:30S 32°41' E 152°10'0 0.9
2018-Jan-03 22:58S 32°41' E 152°11'2 3.7
2018-Jan-03 22:30S 32°42' E 152°10'2 0.1
2018-Jan-03 09:35S 32°43' E 152°08'0 0.0
2018-Jan-03 09:29S 32°43' E 152°08'0 0.0
2018-Jan-03 08:59S 32°43' E 152°08'0 0.0
2018-Jan-03 08:29S 32°43' E 152°08'0 0.0
2018-Jan-03 07:59S 32°43' E 152°08'0 0.0
2018-Jan-03 07:29S 32°43' E 152°08'0 0.0
2018-Jan-03 06:59S 32°43' E 152°08'0 0.1
2018-Jan-03 06:29S 32°43' E 152°08'0 0.0
2018-Jan-03 05:59S 32°43' E 152°08'0 0.0
2018-Jan-03 05:29S 32°43' E 152°08'0 0.0
2018-Jan-03 04:59S 32°43' E 152°08'0 0.0
2018-Jan-03 04:29S 32°43' E 152°08'0 0.0
2018-Jan-03 03:59S 32°43' E 152°08'0 0.0
2018-Jan-03 03:29S 32°43' E 152°08'0 0.0
2018-Jan-03 02:59S 32°43' E 152°08'0 0.0
2018-Jan-03 02:29S 32°43' E 152°08'0 0.0
2018-Jan-03 01:59S 32°43' E 152°08'0 0.0
2018-Jan-03 01:29S 32°43' E 152°08'0 0.0
2018-Jan-03 00:59S 32°43' E 152°08'0 0.0
2018-Jan-03 00:29S 32°43' E 152°08'0 0.0
2018-Jan-02 23:59S 32°43' E 152°08'0 0.0
2018-Jan-02 23:29S 32°43' E 152°08'0 0.0
2018-Jan-02 22:59S 32°43' E 152°08'0 0.0
2018-Jan-02 22:29S 32°43' E 152°08'1 1.6
2018-Jan-02 21:59S 32°43' E 152°09'2 4.8
2018-Jan-02 21:30S 32°41' E 152°11'0 0.0
2018-Jan-02 09:24S 32°41' E 152°11'0 0.0
2018-Jan-02 08:30S 32°41' E 152°11'0 0.0
2018-Jan-02 08:00S 32°41' E 152°11'0 0.0
2018-Jan-02 07:30S 32°41' E 152°11'1 1.7
2018-Jan-02 07:00S 32°42' E 152°10'3 5.2
2018-Jan-02 06:30S 32°42' E 152°13'3 6.3
2018-Jan-02 06:00S 32°40' E 152°15'3 5.2
2018-Jan-02 05:30S 32°39' E 152°18'2 1.7
2018-Jan-02 04:26S 32°37' E 152°19'0 0.3
2018-Jan-02 03:59S 32°37' E 152°19'0 0.0
2018-Jan-02 00:20S 32°37' E 152°19'2 4.6
2018-Jan-02 00:00S 32°39' E 152°18'3 6.1
2018-Jan-01 23:30S 32°40' E 152°15'3 5.9
2018-Jan-01 23:00S 32°42' E 152°12'2 4.2
2018-Jan-01 22:30S 32°41' E 152°11'0 0.0
2017-Dec-31 07:58S 32°41' E 152°11'0 0.0
2017-Dec-31 07:28S 32°41' E 152°11'0 0.0
2017-Dec-31 06:58S 32°41' E 152°11'0 0.0
2017-Dec-31 06:28S 32°41' E 152°11'0 0.0
2017-Dec-31 05:58S 32°41' E 152°11'0 0.0
2017-Dec-31 05:28S 32°41' E 152°11'0 1.0
2017-Dec-31 05:00S 32°41' E 152°10'3 6.4
2017-Dec-31 04:30S 32°44' E 152°12'2 3.6
2017-Dec-31 04:00S 32°46' E 152°11'2 3.5
2017-Dec-31 03:30S 32°46' E 152°09'3 5.4
2017-Dec-31 03:00S 32°48' E 152°07'3 5.8
2017-Dec-31 02:30S 32°50' E 152°04'3 5.9
2017-Dec-31 02:00S 32°51' E 152°01'  

Dump ship's entire track history